πŸ“Š DonnΓ©es MΓ©tΓ©o - Bordeaux

Total mesures

14,399

TempΓ©rature moyenne

18.9Β°C

Temp. Min/Max

2.9Β° / 42.4Β°

HumiditΓ© moyenne

64.8%

Pression moyenne

1014.7 hPa
enregistrements
ID Date/Heure Temp (Β°C) HumiditΓ© (%) Pression (hPa) Tendance LuminositΓ© (lux) Situation
11799 22/07/2026 14:15 33.8 15.0 1,015.2 β†’ Stable 95,832 chaleur-seche
11798 22/07/2026 13:45 33.3 16.0 1,015.7 β†’ Stable 100,188 chaleur-seche
11797 22/07/2026 13:15 32.9 17.0 1,015.8 β†’ Stable 103,428 chaleur-seche
11796 22/07/2026 12:45 32.2 18.0 1,016.6 β†’ Stable 105,372 chaleur-seche
11795 22/07/2026 12:15 31.7 19.0 1,016.6 β†’ Stable 105,924 chaleur-seche
11794 22/07/2026 11:45 30.9 21.0 1,017.4 β†’ Stable 105,276 chaleur-seche
11793 22/07/2026 11:15 30.0 22.0 1,017.4 β†’ Stable 103,236 chaleur-seche
11792 22/07/2026 10:45 29.2 24.0 1,017.5 β†’ Stable 99,912 conditions-neutrales-ou-non-definies
11791 22/07/2026 10:15 28.5 25.0 1,017.5 β†’ Stable 95,376 confortablement-chaud (approx.)
11790 22/07/2026 09:45 27.6 27.0 1,017.7 β†’ Stable 89,628 confortablement-chaud (approx.)
11789 22/07/2026 09:15 26.4 29.0 1,017.7 β†’ Stable 82,968 confortablement-chaud (approx.)
11788 22/07/2026 08:45 25.4 31.0 1,017.9 β†’ Stable 75,276 confortablement-chaud (approx.)
11787 22/07/2026 08:15 24.1 34.0 1,017.9 β†’ Stable 64,440 conditions-neutrales-ou-non-definies
11786 22/07/2026 07:45 23.1 36.0 1,018.1 β†’ Stable 55,092 conditions-neutrales-ou-non-definies
11785 22/07/2026 07:15 21.6 40.0 1,018.1 β†’ Stable 42,312 frais-stable
11784 22/07/2026 06:45 20.7 42.0 1,017.8 β†’ Stable 32,868 frais-stable
11783 22/07/2026 06:15 18.8 49.0 1,017.8 β†’ Stable 19,908 frais-stable
11782 22/07/2026 05:45 18.1 52.0 1,017.6 β†’ Stable 12,036 frais-stable
11781 22/07/2026 05:15 18.0 52.0 1,017.5 β†’ Stable 3,336 frais-stable
11780 22/07/2026 04:45 18.0 51.0 1,017.5 β†’ Stable 0 frais-stable
11779 22/07/2026 04:15 18.3 50.0 1,017.5 β†’ Stable 0 frais-stable
11778 22/07/2026 03:45 18.5 49.0 1,017.7 β†’ Stable 0 frais-stable
11777 22/07/2026 03:15 18.8 48.0 1,017.7 β†’ Stable 0 frais-stable
11776 22/07/2026 03:00 19.1 47.0 1,017.7 β†’ Stable 0 frais-stable
11775 22/07/2026 02:45 19.4 45.0 1,017.9 β†’ Stable 0 frais-stable
11774 22/07/2026 02:15 20.2 43.0 1,017.9 β†’ Stable 0 frais-stable
11773 22/07/2026 01:45 20.8 40.0 1,018.1 β†’ Stable 0 frais-stable
11772 22/07/2026 01:15 21.7 39.0 1,018.1 β†’ Stable 0 conditions-neutrales-ou-non-definies
11771 22/07/2026 00:45 22.1 38.0 1,018.1 β†’ Stable 0 conditions-neutrales-ou-non-definies
11770 22/07/2026 00:15 22.5 37.0 1,018.1 β†’ Stable 0 conditions-neutrales-ou-non-definies
11769 21/07/2026 23:45 22.9 36.0 1,018.3 β†’ Stable 0 conditions-neutrales-ou-non-definies
11768 21/07/2026 23:15 23.3 36.0 1,018.3 β†’ Stable 0 conditions-neutrales-ou-non-definies
11767 21/07/2026 22:45 23.8 34.0 1,018.0 β†’ Stable 0 conditions-neutrales-ou-non-definies
11766 21/07/2026 22:15 24.6 31.0 1,018.0 β†’ Stable 0 conditions-neutrales-ou-non-definies
11765 21/07/2026 21:45 25.3 29.0 1,017.7 β†’ Stable 0 conditions-neutrales-ou-non-definies
11764 21/07/2026 21:15 26.5 26.0 1,017.7 β†’ Stable 0 conditions-neutrales-ou-non-definies
11763 21/07/2026 20:45 27.4 24.0 1,017.1 β†’ Stable 0 conditions-neutrales-ou-non-definies
11762 21/07/2026 20:15 28.0 22.0 1,017.1 β†’ Stable 0 conditions-neutrales-ou-non-definies
11761 21/07/2026 19:45 28.6 21.0 1,016.5 β†’ Stable 180 conditions-neutrales-ou-non-definies
11760 21/07/2026 19:15 30.0 18.0 1,016.5 β†’ Stable 6,672 chaleur-seche
11759 21/07/2026 18:45 30.7 17.0 1,016.2 β†’ Stable 14,820 chaleur-seche
11758 21/07/2026 18:15 31.3 16.0 1,016.2 β†’ Stable 25,644 chaleur-seche
11757 21/07/2026 17:45 31.7 16.0 1,015.9 β†’ Stable 35,736 chaleur-seche
11756 21/07/2026 17:15 32.2 15.0 1,015.9 β†’ Stable 47,496 chaleur-seche
11755 21/07/2026 16:45 32.4 15.0 1,015.8 β†’ Stable 57,588 chaleur-seche
11754 21/07/2026 16:15 32.6 15.0 1,015.8 β†’ Stable 67,500 chaleur-seche
11753 21/07/2026 15:45 32.7 16.0 1,015.7 β†’ Stable 76,116 chaleur-seche
11752 21/07/2026 15:15 32.6 16.0 1,015.7 β†’ Stable 83,700 chaleur-seche
11751 21/07/2026 14:45 32.5 17.0 1,016.1 β†’ Stable 90,372 chaleur-seche
11750 21/07/2026 14:15 32.6 18.0 1,016.1 β†’ Stable 95,928 chaleur-seche
11749 21/07/2026 13:45 32.2 19.0 1,016.5 β†’ Stable 100,368 chaleur-seche
11748 21/07/2026 13:15 31.5 20.0 1,016.5 β†’ Stable 103,608 chaleur-seche
11747 21/07/2026 12:45 30.9 21.0 1,016.9 β†’ Stable 105,468 chaleur-seche
11746 21/07/2026 12:15 30.5 23.0 1,016.9 β†’ Stable 106,116 chaleur-seche
11745 21/07/2026 11:45 29.6 25.0 1,017.3 β†’ Stable 105,372 conditions-neutrales-ou-non-definies
11744 21/07/2026 11:15 28.8 27.0 1,017.3 β†’ Stable 103,332 confortablement-chaud (approx.)
11743 21/07/2026 10:45 27.7 30.0 1,017.4 β†’ Stable 99,996 confortablement-chaud (approx.)
11742 21/07/2026 10:15 26.6 31.0 1,017.4 β†’ Stable 95,556 confortablement-chaud (approx.)
11741 21/07/2026 09:45 25.5 34.0 1,017.4 β†’ Stable 89,820 confortablement-chaud (approx.)
11740 21/07/2026 09:15 24.5 36.0 1,017.4 β†’ Stable 82,680 confortablement-chaud (approx.)
11739 21/07/2026 08:45 23.6 37.0 1,017.3 β†’ Stable 75,000 conditions-neutrales-ou-non-definies
11738 21/07/2026 08:15 22.6 39.0 1,017.3 β†’ Stable 63,708 conditions-neutrales-ou-non-definies
11737 21/07/2026 07:45 21.8 41.0 1,017.3 β†’ Stable 54,444 frais-stable
11736 21/07/2026 07:15 20.8 43.0 1,017.3 β†’ Stable 41,664 frais-stable
11735 21/07/2026 06:45 20.2 44.0 1,016.9 β†’ Stable 32,316 frais-stable
11734 21/07/2026 06:15 19.4 46.0 1,016.9 β†’ Stable 19,728 frais-stable
11733 21/07/2026 05:45 19.1 46.0 1,016.5 β†’ Stable 12,036 frais-stable
11732 21/07/2026 05:15 19.3 44.0 1,016.5 β†’ Stable 3,144 frais-stable
11731 21/07/2026 04:45 19.5 43.0 1,016.0 β†’ Stable 0 frais-stable
11730 21/07/2026 04:15 20.1 41.0 1,016.0 β†’ Stable 0 frais-stable
11729 21/07/2026 03:45 20.5 40.0 1,015.9 β†’ Stable 0 frais-stable
11728 21/07/2026 03:15 21.0 38.0 1,015.9 β†’ Stable 0 conditions-neutrales-ou-non-definies
11727 21/07/2026 03:00 21.1 38.0 1,015.9 β†’ Stable 0 conditions-neutrales-ou-non-definies
11726 21/07/2026 02:45 21.3 38.0 1,015.4 β†’ Stable 0 conditions-neutrales-ou-non-definies
11725 21/07/2026 02:15 21.7 38.0 1,015.4 β†’ Stable 0 conditions-neutrales-ou-non-definies
11724 21/07/2026 01:45 21.9 38.0 1,015.3 β†’ Stable 0 conditions-neutrales-ou-non-definies
11723 21/07/2026 01:15 22.6 35.0 1,015.3 β†’ Stable 0 conditions-neutrales-ou-non-definies
11722 21/07/2026 00:45 23.0 35.0 1,015.3 β†’ Stable 0 conditions-neutrales-ou-non-definies
11721 21/07/2026 00:15 23.5 34.0 1,015.3 β†’ Stable 0 conditions-neutrales-ou-non-definies
11720 20/07/2026 23:45 23.9 33.0 1,015.2 β†’ Stable 0 conditions-neutrales-ou-non-definies
11719 20/07/2026 23:15 24.6 31.0 1,015.2 β†’ Stable 0 conditions-neutrales-ou-non-definies
11718 20/07/2026 22:45 25.0 31.0 1,014.6 β†’ Stable 0 conditions-neutrales-ou-non-definies
11717 20/07/2026 22:15 25.9 30.0 1,014.6 β†’ Stable 0 conditions-neutrales-ou-non-definies
11716 20/07/2026 21:45 26.5 29.0 1,014.0 β†’ Stable 0 conditions-neutrales-ou-non-definies
11715 20/07/2026 21:15 27.2 27.0 1,014.0 β†’ Stable 0 conditions-neutrales-ou-non-definies
11714 20/07/2026 20:45 27.8 27.0 1,013.3 β†’ Stable 0 conditions-neutrales-ou-non-definies
11713 20/07/2026 20:15 28.7 25.0 1,013.3 β†’ Stable 0 conditions-neutrales-ou-non-definies
11712 20/07/2026 19:45 29.2 24.0 1,012.9 β†’ Stable 180 conditions-neutrales-ou-non-definies
11711 20/07/2026 19:15 30.4 22.0 1,012.9 β†’ Stable 6,480 chaleur-seche
11710 20/07/2026 18:45 30.9 21.0 1,012.5 β†’ Stable 14,352 chaleur-seche
11709 20/07/2026 18:15 32.1 18.0 1,012.5 β†’ Stable 24,912 chaleur-seche
11708 20/07/2026 17:45 32.5 18.0 1,012.7 β†’ Stable 34,632 chaleur-seche
11707 20/07/2026 17:15 32.3 18.0 1,012.7 β†’ Stable 42,036 chaleur-seche
11706 20/07/2026 16:45 32.8 18.0 1,012.7 β†’ Stable 52,404 chaleur-seche
11705 20/07/2026 16:15 32.8 18.0 1,012.7 β†’ Stable 60,096 chaleur-seche
11704 20/07/2026 15:45 32.5 18.0 1,012.6 β†’ Stable 66,948 chaleur-seche
11703 20/07/2026 15:15 32.5 19.0 1,012.6 β†’ Stable 56,760 chaleur-seche
11702 20/07/2026 14:45 32.2 20.0 1,012.8 β†’ Stable 61,200 chaleur-seche
11701 20/07/2026 14:15 32.2 21.0 1,012.8 β†’ Stable 82,872 chaleur-seche
11700 20/07/2026 13:45 31.6 23.0 1,013.3 β†’ Stable 88,056 chaleur-seche